Time;durP1;ratioP1;P1;durP2;ratioP2;P2;SDS_P1;SDS_P2;PMS_P1;PMS_P2;Temp;Humidity;BMP_temperature;BMP_pressure;BME280_temperature;BME280_humidity;BME280_pressure;Samples;Min_cycle;Max_cycle;Signal;HPM_P1;HPM_P2
2022/12/31 00:01:09;;;;;;;1.67;0.40;;;17.10;99.50;;;;;;5072746;28;20355;-64
2022/12/31 00:03:35;;;;;;;3.10;0.40;;;17.10;99.50;;;;;;5072282;28;20056;-64
2022/12/31 00:06:10;;;;;;;1.63;0.20;;;17.10;99.40;;;;;;5072748;28;20020;-64
2022/12/31 00:08:36;;;;;;;2.92;0.30;;;17.10;99.40;;;;;;5072534;28;20059;-64
2022/12/31 00:11:01;;;;;;;1.23;0.40;;;17.10;99.30;;;;;;5072537;28;20070;-64
2022/12/31 00:13:27;;;;;;;2.53;0.35;;;17.10;99.40;;;;;;5072221;28;20111;-64
2022/12/31 00:15:52;;;;;;;1.80;0.35;;;17.10;99.40;;;;;;5072514;28;20109;-64
2022/12/31 00:18:18;;;;;;;4.28;0.50;;;17.10;99.30;;;;;;5072102;28;20035;-64
2022/12/31 00:20:43;;;;;;;1.65;0.40;;;17.10;99.30;;;;;;5072512;28;20028;-64
2022/12/31 00:23:10;;;;;;;1.65;0.43;;;17.10;99.40;;;;;;5072160;28;20029;-65
2022/12/31 00:25:36;;;;;;;2.17;0.20;;;17.10;99.30;;;;;;5071067;28;20401;-64
2022/12/31 00:28:03;;;;;;;0.88;0.22;;;17.10;99.20;;;;;;5072537;28;20468;-64
2022/12/31 00:30:28;;;;;;;0.95;0.13;;;17.10;99.30;;;;;;5072451;28;20059;-64
2022/12/31 00:32:54;;;;;;;2.83;0.40;;;17.10;99.20;;;;;;5071947;28;20080;-65
2022/12/31 00:35:19;;;;;;;0.75;0.20;;;17.10;99.20;;;;;;5072314;28;20040;-64
2022/12/31 00:37:45;;;;;;;1.17;0.40;;;17.10;99.30;;;;;;5072290;28;20060;-66
2022/12/31 00:40:10;;;;;;;0.95;0.10;;;17.10;99.20;;;;;;5072199;28;20037;-64
2022/12/31 00:42:36;;;;;;;1.52;0.17;;;17.10;99.40;;;;;;5072073;28;20024;-64
2022/12/31 00:45:01;;;;;;;0.50;0.10;;;17.10;99.20;;;;;;5072158;28;20032;-64
2022/12/31 00:47:27;;;;;;;1.08;0.17;;;17.10;99.20;;;;;;5071752;28;20103;-63
2022/12/31 00:49:53;;;;;;;1.45;0.20;;;17.00;99.40;;;;;;5072130;28;20094;-63
2022/12/31 00:52:18;;;;;;;0.80;0.10;;;17.10;99.30;;;;;;5070731;28;20033;-64
2022/12/31 00:54:44;;;;;;;0.93;0.13;;;17.10;99.10;;;;;;5071993;28;20090;-63
2022/12/31 00:57:09;;;;;;;2.35;0.10;;;17.10;99.10;;;;;;5072103;28;20535;-63
2022/12/31 00:59:35;;;;;;;2.47;0.40;;;17.10;99.00;;;;;;5071773;28;20483;-64
2022/12/31 01:02:00;;;;;;;1.20;0.10;;;17.10;99.00;;;;;;5071738;28;20066;-63
2022/12/31 01:04:26;;;;;;;0.70;0.20;;;17.10;99.10;;;;;;5071924;28;20028;-64
2022/12/31 01:06:51;;;;;;;0.90;0.20;;;17.10;99.10;;;;;;5072136;28;20028;-66
2022/12/31 01:09:17;;;;;;;0.85;0.15;;;17.10;99.20;;;;;;5070690;28;20039;-64
2022/12/31 01:11:43;;;;;;;0.82;0.20;;;17.10;99.10;;;;;;5071748;28;20158;-64
2022/12/31 01:14:17;;;;;;;1.48;0.20;;;17.10;99.10;;;;;;5071905;28;20029;-63
2022/12/31 01:16:46;;;;;;;0.75;0.10;;;17.00;99.10;;;;;;5074095;28;20104;-63
2022/12/31 01:19:15;;;;;;;0.38;0.10;;;17.00;99.30;;;;;;5075649;28;20134;-63
2022/12/31 01:21:41;;;;;;;1.13;0.20;;;16.90;99.70;;;;;;5075578;28;20055;-62
2022/12/31 01:24:08;;;;;;;2.25;0.47;;;16.80;99.90;;;;;;5075517;28;20428;-63
2022/12/31 01:26:34;;;;;;;1.48;0.70;;;16.80;99.90;;;;;;5075533;28;20112;-63
2022/12/31 01:29:00;;;;;;;2.03;0.90;;;16.70;99.90;;;;;;5075322;28;20469;-63
2022/12/31 01:31:26;;;;;;;2.15;1.27;;;16.60;99.90;;;;;;5074859;28;20033;-64
2022/12/31 01:33:52;;;;;;;2.20;1.73;;;16.60;99.90;;;;;;5075335;28;20055;-65
2022/12/31 01:36:21;;;;;;;1.45;0.90;;;16.70;99.90;;;;;;5075680;28;20090;-65
2022/12/31 01:38:47;;;;;;;1.30;0.55;;;16.80;99.90;;;;;;5075466;28;20025;-63
2022/12/31 01:41:16;;;;;;;0.90;0.50;;;16.90;99.90;;;;;;5075161;28;20031;-64
2022/12/31 01:43:54;;;;;;;0.60;0.17;;;16.90;99.90;;;;;;5075166;28;20020;-62
2022/12/31 01:46:44;;;;;;;0.52;0.20;;;16.80;99.90;;;;;;5074741;28;20039;-63
2022/12/31 01:49:40;;;;;;;1.33;0.22;;;16.70;99.90;;;;;;5073630;28;20031;-63
2022/12/31 01:52:12;;;;;;;1.08;0.38;;;16.60;99.90;;;;;;5074743;28;20028;-64
2022/12/31 01:54:40;;;;;;;;;;;16.70;99.90;;;;;;5075335;28;20377;-64
2022/12/31 01:57:07;;;;;;;1.13;0.28;;;16.70;99.90;;;;;;5073082;28;20269;-63
2022/12/31 01:59:33;;;;;;;0.85;0.30;;;16.60;99.90;;;;;;5074528;28;20035;-65
2022/12/31 02:01:59;;;;;;;1.90;0.20;;;16.60;99.90;;;;;;5074790;28;20029;-63
2022/12/31 02:04:26;;;;;;;0.82;0.30;;;16.40;99.90;;;;;;5075053;28;20027;-63
2022/12/31 02:07:04;;;;;;;1.92;0.30;;;16.20;99.90;;;;;;5074490;28;20023;-63
2022/12/31 02:09:31;;;;;;;0.90;0.20;;;16.40;99.90;;;;;;5074777;28;20033;-64
2022/12/31 02:11:56;;;;;;;1.55;0.30;;;16.20;99.90;;;;;;5074276;28;20020;-63
2022/12/31 02:14:38;;;;;;;0.35;0.10;;;16.20;99.90;;;;;;5074392;28;20031;-62
2022/12/31 02:17:27;;;;;;;1.02;0.20;;;16.20;99.90;;;;;;5074481;28;20394;-63
2022/12/31 02:20:08;;;;;;;1.08;0.10;;;16.30;99.90;;;;;;5074487;28;20028;-64
2022/12/31 02:23:04;;;;;;;1.95;0.20;;;16.20;99.90;;;;;;5074355;28;20048;-64
2022/12/31 02:25:51;;;;;;;0.57;0.10;;;16.20;99.90;;;;;;5074329;28;20032;-64
2022/12/31 02:28:51;;;;;;;1.30;0.20;;;15.90;99.90;;;;;;5072750;28;20078;-65
2022/12/31 02:31:27;;;;;;;1.35;0.20;;;15.70;99.90;;;;;;5072836;28;20536;-64
2022/12/31 02:34:10;;;;;;;1.52;0.28;;;15.70;99.90;;;;;;5073954;28;20058;-64
2022/12/31 02:36:37;;;;;;;;;;;15.80;99.90;;;;;;5074891;28;20024;-64
2022/12/31 02:39:04;;;;;;;0.60;0.20;;;15.90;99.90;;;;;;5072872;28;19908;-64
2022/12/31 02:44:32;;;;;;;1.33;0.22;;;16.40;99.90;;;;;;5073863;28;20031;-65
2022/12/31 02:47:07;;;;;;;0.60;0.10;;;16.40;99.90;;;;;;5073707;28;20021;-64
2022/12/31 02:50:02;;;;;;;0.32;0.20;;;16.30;99.90;;;;;;5074320;28;20037;-64
2022/12/31 02:52:30;;;;;;;0.38;0.00;;;16.50;99.90;;;;;;5073619;28;20066;-64
2022/12/31 02:55:12;;;;;;;0.43;0.10;;;16.50;99.90;;;;;;5073780;28;20063;-64
2022/12/31 02:57:47;;;;;;;0.13;0.00;;;16.60;99.90;;;;;;5073907;28;20031;-64
2022/12/31 03:03:00;;;;;;;0.75;0.30;;;16.70;99.90;;;;;;5073784;28;20098;-64
2022/12/31 03:05:29;;;;;;;0.20;0.00;;;16.70;99.60;;;;;;5073629;28;20012;-64
2022/12/31 03:07:55;;;;;;;0.25;0.00;;;16.70;99.60;;;;;;5073537;28;20028;-64
2022/12/31 03:10:20;;;;;;;0.32;0.05;;;16.80;99.50;;;;;;5073604;28;20384;-64
2022/12/31 03:12:46;;;;;;;0.47;0.10;;;16.80;99.40;;;;;;5072695;28;20029;-64
2022/12/31 03:15:21;;;;;;;2.72;0.30;;;16.70;99.40;;;;;;5073312;28;20029;-63
2022/12/31 03:17:57;;;;;;;0.70;0.10;;;16.80;99.30;;;;;;5073428;28;20393;-64
2022/12/31 03:23:14;;;;;;;0.70;0.10;;;16.80;99.10;;;;;;5073165;28;20035;-64
2022/12/31 03:25:39;;;;;;;0.57;0.10;;;16.80;99.30;;;;;;5073135;28;20028;-65
2022/12/31 03:28:11;;;;;;;0.22;0.00;;;16.90;99.10;;;;;;5072573;28;20031;-64
2022/12/31 03:30:39;;;;;;;0.57;0.10;;;16.80;99.20;;;;;;5073231;28;20025;-69
2022/12/31 03:33:06;;;;;;;0.57;0.00;;;16.90;99.10;;;;;;5072771;28;20043;-69
2022/12/31 03:35:33;;;;;;;0.50;0.10;;;16.90;99.10;;;;;;5071863;28;20116;-68
2022/12/31 03:37:59;;;;;;;0.60;0.13;;;16.80;99.20;;;;;;5072185;28;20485;-68
2022/12/31 03:40:26;;;;;;;0.77;0.10;;;16.90;99.10;;;;;;5072877;28;20056;-69
2022/12/31 03:42:52;;;;;;;0.57;0.10;;;16.90;99.20;;;;;;5072899;28;20377;-66
2022/12/31 03:45:18;;;;;;;0.60;0.00;;;16.90;99.20;;;;;;5072942;28;20031;-68
2022/12/31 03:47:43;;;;;;;0.55;0.10;;;16.90;99.20;;;;;;5072854;28;20097;-69
2022/12/31 03:50:10;;;;;;;1.00;0.15;;;16.90;99.20;;;;;;5072859;28;20466;-69
2022/12/31 03:52:36;;;;;;;1.52;0.17;;;16.90;99.30;;;;;;5072534;28;20047;-66
2022/12/31 03:55:03;;;;;;;1.55;0.10;;;16.90;99.40;;;;;;5072499;28;20496;-65
2022/12/31 03:57:29;;;;;;;0.88;0.10;;;16.90;99.40;;;;;;5072758;28;20029;-66
2022/12/31 03:59:54;;;;;;;1.48;0.10;;;16.90;99.40;;;;;;5072921;28;20047;-65
2022/12/31 04:02:20;;;;;;;0.82;0.08;;;16.90;99.40;;;;;;5072357;28;20418;-65
2022/12/31 04:04:45;;;;;;;0.75;0.08;;;16.90;99.60;;;;;;5072718;28;20562;-64
2022/12/31 04:07:11;;;;;;;1.45;0.47;;;16.90;99.60;;;;;;5072652;28;20020;-65
2022/12/31 04:09:36;;;;;;;1.38;0.10;;;16.90;99.60;;;;;;5072208;28;20017;-66
2022/12/31 04:12:02;;;;;;;5.25;0.45;;;16.90;99.60;;;;;;5065124;28;20393;-66
2022/12/31 04:14:28;;;;;;;1.88;0.22;;;17.00;99.70;;;;;;5066284;28;20028;-65
2022/12/31 04:16:53;;;;;;;1.83;0.20;;;17.00;99.80;;;;;;5070272;28;20153;-65
2022/12/31 04:19:19;;;;;;;1.40;0.20;;;17.00;99.90;;;;;;5070477;28;20029;-65
2022/12/31 04:21:44;;;;;;;1.10;0.10;;;17.00;99.80;;;;;;5072398;28;20032;-64
2022/12/31 04:24:10;;;;;;;1.60;0.40;;;17.00;99.80;;;;;;5071753;28;20025;-64
2022/12/31 04:26:36;;;;;;;0.98;0.10;;;17.00;99.80;;;;;;5072518;28;20031;-66
2022/12/31 04:29:02;;;;;;;1.00;0.20;;;17.00;99.90;;;;;;5072393;28;20024;-65
2022/12/31 04:31:27;;;;;;;2.15;0.20;;;17.00;99.90;;;;;;5072067;28;20107;-64
2022/12/31 04:33:53;;;;;;;0.95;0.28;;;17.00;99.90;;;;;;5072337;28;20119;-64
2022/12/31 04:36:18;;;;;;;1.33;0.30;;;17.00;99.90;;;;;;5072250;28;20082;-64
2022/12/31 04:38:44;;;;;;;2.67;0.40;;;17.10;99.90;;;;;;5071934;28;20089;-64
2022/12/31 04:41:16;;;;;;;3.03;0.40;;;17.00;99.90;;;;;;5072131;28;20428;-64
2022/12/31 04:43:46;;;;;;;2.00;0.20;;;17.00;99.90;;;;;;5072380;28;20099;-64
2022/12/31 04:46:13;;;;;;;0.73;0.15;;;17.00;99.90;;;;;;5072252;28;20075;-64
2022/12/31 04:48:39;;;;;;;1.00;0.10;;;17.00;99.90;;;;;;5072107;28;20028;-65
2022/12/31 04:51:04;;;;;;;0.95;0.10;;;17.10;99.90;;;;;;5073730;28;20016;-65
2022/12/31 04:53:30;;;;;;;1.35;0.10;;;17.10;99.90;;;;;;5075706;28;20040;-64
2022/12/31 04:55:56;;;;;;;1.15;0.30;;;17.10;99.90;;;;;;5076097;28;20066;-65
2022/12/31 04:58:21;;;;;;;1.58;0.30;;;17.10;99.90;;;;;;5076055;28;20035;-66
2022/12/31 05:00:49;;;;;;;1.73;0.20;;;17.10;99.90;;;;;;5075964;28;20033;-66
2022/12/31 05:03:16;;;;;;;1.48;0.22;;;17.10;99.90;;;;;;5075818;28;20025;-65
2022/12/31 05:05:42;;;;;;;1.13;0.20;;;17.10;99.90;;;;;;5075886;28;20495;-66
2022/12/31 05:08:11;;;;;;;0.85;0.20;;;17.10;99.90;;;;;;5075422;28;20097;-65
2022/12/31 05:10:41;;;;;;;1.70;0.10;;;17.10;99.90;;;;;;5075635;28;20028;-66
2022/12/31 05:13:06;;;;;;;0.93;0.28;;;17.10;99.90;;;;;;5074549;28;20044;-65
2022/12/31 05:15:32;;;;;;;0.90;0.10;;;17.10;99.90;;;;;;5075733;28;20024;-65
2022/12/31 05:17:58;;;;;;;1.17;0.20;;;17.10;99.90;;;;;;5075787;28;20024;-64
2022/12/31 05:20:23;;;;;;;1.73;0.20;;;17.10;99.90;;;;;;5075461;28;20024;-66
2022/12/31 05:22:49;;;;;;;0.98;0.20;;;17.10;99.90;;;;;;5075194;28;20103;-65
2022/12/31 05:25:14;;;;;;;0.77;0.10;;;17.10;99.90;;;;;;5075337;28;20096;-66
2022/12/31 05:27:40;;;;;;;0.55;0.00;;;17.10;99.90;;;;;;5075597;28;20107;-65
2022/12/31 05:30:06;;;;;;;0.90;0.10;;;17.10;99.90;;;;;;5075160;28;20469;-65
2022/12/31 05:32:32;;;;;;;1.10;0.10;;;17.10;99.90;;;;;;5075149;28;20037;-64
2022/12/31 05:34:58;;;;;;;1.75;0.20;;;17.10;99.90;;;;;;5075544;28;20025;-66
2022/12/31 05:37:26;;;;;;;1.83;0.50;;;17.20;99.90;;;;;;5074874;28;20048;-64
2022/12/31 05:39:51;;;;;;;0.47;0.10;;;17.10;99.90;;;;;;5075283;28;20012;-64
2022/12/31 05:42:17;;;;;;;1.83;0.20;;;17.20;99.90;;;;;;5074999;28;20028;-66
2022/12/31 05:44:43;;;;;;;1.23;0.10;;;17.20;99.90;;;;;;5073737;28;20021;-65
2022/12/31 05:47:08;;;;;;;1.42;0.10;;;17.20;99.90;;;;;;5075120;28;20035;-65
2022/12/31 05:49:34;;;;;;;0.57;0.13;;;17.10;99.90;;;;;;5075091;28;20032;-66
2022/12/31 05:51:59;;;;;;;0.65;0.28;;;17.20;99.90;;;;;;5074620;28;20021;-66
2022/12/31 05:54:25;;;;;;;1.45;0.15;;;17.20;99.90;;;;;;5074947;28;20470;-65
2022/12/31 05:56:50;;;;;;;1.00;0.10;;;17.20;99.90;;;;;;5073493;28;20119;-63
2022/12/31 05:59:16;;;;;;;2.55;0.20;;;17.20;99.90;;;;;;5074829;28;20029;-64
2022/12/31 06:01:41;;;;;;;0.70;0.00;;;17.20;99.90;;;;;;5065699;28;20100;-62
2022/12/31 06:04:07;;;;;;;0.88;0.10;;;17.20;99.90;;;;;;5054719;28;20028;-63
2022/12/31 06:06:33;;;;;;;1.10;0.20;;;17.20;99.90;;;;;;5053269;28;20032;-64
2022/12/31 06:08:58;;;;;;;1.48;0.20;;;17.20;99.90;;;;;;5053686;28;20025;-63
2022/12/31 06:11:24;;;;;;;1.33;0.10;;;17.20;99.90;;;;;;5054407;28;20021;-62
2022/12/31 06:13:49;;;;;;;0.55;0.05;;;17.20;99.90;;;;;;5054154;28;20502;-63
2022/12/31 06:16:15;;;;;;;2.17;0.32;;;17.30;99.90;;;;;;5054182;28;20413;-62
2022/12/31 06:18:41;;;;;;;0.85;0.17;;;17.20;99.90;;;;;;5054727;28;20025;-62
2022/12/31 06:21:06;;;;;;;1.70;0.17;;;17.30;99.90;;;;;;5054170;28;20033;-63
2022/12/31 06:23:32;;;;;;;0.52;0.08;;;17.30;99.90;;;;;;5054227;28;20090;-63
2022/12/31 06:26:07;;;;;;;0.80;0.10;;;17.30;99.90;;;;;;5054296;28;20028;-63
2022/12/31 06:28:32;;;;;;;1.02;0.15;;;17.30;99.90;;;;;;5054287;28;20104;-63
2022/12/31 06:31:04;;;;;;;1.13;0.10;;;17.30;99.90;;;;;;5054138;28;20120;-62
2022/12/31 06:33:30;;;;;;;2.10;0.25;;;17.30;99.90;;;;;;5054098;28;20466;-63
2022/12/31 06:35:57;;;;;;;1.90;0.20;;;17.30;99.90;;;;;;5053886;28;20505;-62
2022/12/31 06:38:27;;;;;;;0.50;0.10;;;17.30;99.90;;;;;;5053780;28;20536;-62
2022/12/31 06:40:53;;;;;;;1.83;0.15;;;17.10;99.90;;;;;;5053915;28;20553;-61
2022/12/31 06:43:19;;;;;;;0.90;0.17;;;16.90;99.90;;;;;;5052873;28;20044;-63
2022/12/31 06:45:45;;;;;;;1.42;0.10;;;16.70;99.90;;;;;;5054036;28;20066;-64
2022/12/31 06:48:11;;;;;;;1.05;0.20;;;16.60;99.90;;;;;;5053876;28;20021;-63
2022/12/31 06:50:36;;;;;;;1.92;0.10;;;16.60;99.90;;;;;;5053701;28;20483;-62
2022/12/31 06:53:02;;;;;;;1.27;0.15;;;16.60;99.90;;;;;;5053675;28;20463;-61
2022/12/31 06:55:28;;;;;;;1.92;0.22;;;16.50;99.90;;;;;;5053767;28;20112;-62
2022/12/31 06:57:54;;;;;;;2.75;0.20;;;16.50;99.90;;;;;;5053717;28;20478;-62
2022/12/31 07:00:20;;;;;;;0.90;0.20;;;16.50;99.90;;;;;;5053577;28;20024;-62
2022/12/31 07:03:06;;;;;;;3.22;0.10;;;16.60;99.90;;;;;;5053481;28;20040;-62
2022/12/31 07:05:53;;;;;;;2.70;0.30;;;16.50;99.90;;;;;;5053277;28;20052;-62
2022/12/31 07:08:56;;;;;;;1.63;0.20;;;16.60;99.90;;;;;;5052075;28;20107;-62
2022/12/31 07:11:28;;;;;;;2.67;0.30;;;16.60;99.90;;;;;;5053365;28;20466;-62
2022/12/31 07:14:00;;;;;;;0.82;0.20;;;16.50;99.90;;;;;;5053149;28;20044;-61
2022/12/31 07:16:38;;;;;;;2.53;0.38;;;16.50;99.90;;;;;;5060175;28;20405;-61
2022/12/31 07:19:21;;;;;;;1.90;0.20;;;16.60;99.90;;;;;;5066790;28;20090;-63
2022/12/31 07:21:48;;;;;;;1.15;0.20;;;16.50;99.90;;;;;;5070958;28;20028;-64
2022/12/31 07:24:14;;;;;;;2.00;0.50;;;16.50;99.90;;;;;;5063469;28;20021;-62
2022/12/31 07:27:07;;;;;;;2.60;0.30;;;16.50;99.90;;;;;;5070260;28;20500;-62
2022/12/31 07:30:11;;;;;;;3.50;0.43;;;16.50;99.90;;;;;;5067137;28;20036;-63
2022/12/31 07:32:44;;;;;;;2.35;0.43;;;16.50;99.90;;;;;;5058370;28;20044;-65
2022/12/31 07:35:37;;;;;;;2.30;0.30;;;16.50;99.90;;;;;;5064184;28;20020;-63
2022/12/31 07:38:30;;;;;;;2.80;0.40;;;16.60;99.90;;;;;;5070606;28;20036;-63
2022/12/31 07:40:56;;;;;;;2.20;0.30;;;16.50;99.90;;;;;;5061086;28;20067;-62
2022/12/31 07:43:30;;;;;;;1.90;0.30;;;16.50;99.90;;;;;;5070054;28;20044;-62
2022/12/31 07:46:18;;;;;;;3.10;0.30;;;16.60;99.90;;;;;;5068355;28;20374;-63
2022/12/31 07:48:43;;;;;;;8.05;0.80;;;16.60;99.90;;;;;;5072124;28;20020;-67
2022/12/31 07:51:10;;;;;;;2.75;0.22;;;16.70;99.90;;;;;;5072260;28;20043;-65
2022/12/31 07:53:36;;;;;;;4.47;0.40;;;16.80;99.90;;;;;;5072002;28;20048;-67
2022/12/31 07:56:04;;;;;;;3.90;0.45;;;17.00;99.90;;;;;;5071573;28;20372;-63
2022/12/31 07:58:39;;;;;;;2.70;0.43;;;17.20;99.90;;;;;;5070801;28;20503;-65
2022/12/31 08:01:08;;;;;;;2.67;0.20;;;17.30;99.90;;;;;;5071484;28;20032;-62
2022/12/31 08:04:02;;;;;;;7.13;0.45;;;17.40;99.90;;;;;;5072297;28;20123;-67
2022/12/31 08:06:57;;;;;;;2.03;0.60;;;17.40;99.90;;;;;;5070044;28;20029;-67
2022/12/31 08:09:32;;;;;;;2.42;0.50;;;17.40;99.90;;;;;;5066436;28;20063;-63
2022/12/31 08:12:00;;;;;;;1.83;0.20;;;17.50;99.90;;;;;;5069009;28;20035;-63
2022/12/31 08:14:26;;;;;;;5.35;0.85;;;17.50;99.90;;;;;;5072405;28;20052;-63
2022/12/31 08:16:52;;;;;;;4.07;0.57;;;17.60;99.90;;;;;;5071544;28;20024;-64
2022/12/31 08:19:31;;;;;;;2.83;0.38;;;17.50;99.90;;;;;;5070938;28;20025;-64
2022/12/31 08:21:56;;;;;;;2.58;0.55;;;17.60;99.90;;;;;;5072428;28;20031;-63
2022/12/31 08:24:28;;;;;;;2.70;0.30;;;17.50;99.90;;;;;;5072556;28;20032;-63
2022/12/31 08:26:57;;;;;;;2.65;0.60;;;17.60;99.90;;;;;;5076691;28;20013;-62
2022/12/31 08:29:32;;;;;;;2.72;0.47;;;17.60;99.90;;;;;;5076546;28;20544;-65
2022/12/31 08:32:22;;;;;;;1.98;0.30;;;17.60;99.90;;;;;;5076302;28;20123;-64
2022/12/31 08:35:27;;;;;;;0.77;0.15;;;17.60;99.90;;;;;;5076366;28;20021;-63
2022/12/31 08:38:24;;;;;;;1.85;0.25;;;17.60;99.90;;;;;;5076530;28;20473;-63
2022/12/31 08:41:02;;;;;;;2.95;0.38;;;17.60;99.90;;;;;;5076239;28;20450;-63
2022/12/31 08:43:48;;;;;;;4.57;0.40;;;17.60;99.90;;;;;;5076224;28;20150;-62
2022/12/31 08:46:24;;;;;;;1.35;0.22;;;17.60;99.90;;;;;;5076034;28;20116;-63
2022/12/31 08:48:50;;;;;;;3.58;0.88;;;17.60;99.90;;;;;;5076038;28;20465;-64
2022/12/31 08:51:22;;;;;;;3.08;0.43;;;17.60;99.90;;;;;;5076213;28;20038;-64
2022/12/31 08:53:48;;;;;;;4.20;0.45;;;17.60;99.90;;;;;;5075969;28;20493;-63
2022/12/31 08:56:40;;;;;;;2.40;0.40;;;17.60;99.90;;;;;;5072222;28;20070;-63
2022/12/31 08:59:25;;;;;;;2.35;0.45;;;17.60;99.90;;;;;;5075062;28;20024;-65
2022/12/31 09:02:09;;;;;;;2.00;0.40;;;17.60;99.90;;;;;;5074819;28;20111;-65
2022/12/31 09:05:08;;;;;;;3.00;0.65;;;17.70;99.90;;;;;;5074817;28;20036;-66
2022/12/31 09:07:43;;;;;;;4.20;0.55;;;17.70;99.90;;;;;;5074855;28;20170;-66
2022/12/31 09:10:47;;;;;;;4.20;0.60;;;17.80;99.90;;;;;;5072895;28;20044;-65
2022/12/31 09:13:35;;;;;;;2.75;0.40;;;17.80;99.90;;;;;;5074542;28;20036;-65
2022/12/31 09:16:12;;;;;;;2.05;0.20;;;17.80;99.90;;;;;;5074172;28;20477;-65
2022/12/31 09:18:40;;;;;;;2.90;0.50;;;17.80;99.90;;;;;;5074647;28;20622;-65
2022/12/31 09:21:11;;;;;;;4.00;0.30;;;17.80;99.90;;;;;;5074130;28;20024;-65
2022/12/31 09:23:38;;;;;;;3.00;0.43;;;17.80;99.90;;;;;;5073196;28;20154;-65
2022/12/31 09:26:14;;;;;;;4.35;0.45;;;17.80;99.90;;;;;;5074321;28;20047;-64
2022/12/31 09:28:59;;;;;;;1.63;0.32;;;17.80;99.90;;;;;;5073680;28;20036;-64
2022/12/31 09:31:48;;;;;;;5.15;0.70;;;17.80;99.90;;;;;;5073319;28;20079;-65
2022/12/31 09:34:33;;;;;;;2.90;0.47;;;17.80;99.90;;;;;;5074792;28;20090;-64
2022/12/31 09:37:04;;;;;;;3.05;0.60;;;17.80;99.90;;;;;;5072919;28;20032;-64
2022/12/31 09:39:40;;;;;;;2.85;0.45;;;17.80;99.90;;;;;;5073724;28;20469;-64
2022/12/31 09:42:43;;;;;;;3.35;0.50;;;17.90;99.90;;;;;;5074138;28;20108;-63
2022/12/31 09:45:30;;;;;;;2.53;0.47;;;17.90;99.90;;;;;;5074121;28;20522;-64
2022/12/31 09:48:21;;;;;;;5.70;0.65;;;17.90;99.90;;;;;;5074385;28;20460;-64
2022/12/31 09:51:05;;;;;;;2.80;0.50;;;17.90;99.90;;;;;;5073710;28;20017;-64
2022/12/31 09:53:56;;;;;;;4.93;1.05;;;17.90;99.90;;;;;;5073898;28;20095;-64
2022/12/31 09:56:27;;;;;;;2.35;0.40;;;17.90;99.80;;;;;;5073165;28;20066;-65
2022/12/31 09:59:05;;;;;;;3.55;0.55;;;18.00;99.70;;;;;;5073373;28;20510;-64
2022/12/31 10:01:53;;;;;;;2.78;0.47;;;18.00;99.80;;;;;;5073330;28;20453;-66
2022/12/31 10:04:24;;;;;;;5.95;0.73;;;18.00;99.90;;;;;;5072636;28;20044;-64
2022/12/31 10:07:13;;;;;;;2.45;0.40;;;18.00;99.90;;;;;;5073468;28;20391;-65
2022/12/31 10:10:06;;;;;;;3.97;0.50;;;18.00;99.90;;;;;;5073099;28;20434;-65
2022/12/31 10:13:00;;;;;;;3.97;0.43;;;18.00;99.90;;;;;;5073069;28;20115;-64
2022/12/31 10:15:40;;;;;;;3.95;0.52;;;18.00;99.90;;;;;;5073250;28;20012;-65
2022/12/31 10:18:09;;;;;;;3.38;0.60;;;18.10;99.90;;;;;;5073855;28;20485;-64
2022/12/31 10:20:56;;;;;;;2.10;0.55;;;18.10;99.90;;;;;;5072908;28;20032;-64
2022/12/31 10:23:57;;;;;;;3.65;0.60;;;18.10;99.90;;;;;;5073274;28;20082;-64
2022/12/31 10:26:35;;;;;;;2.65;0.60;;;18.10;99.90;;;;;;5072416;28;20062;-64
2022/12/31 10:29:25;;;;;;;3.33;0.63;;;18.10;99.90;;;;;;5071353;28;20481;-64
2022/12/31 10:32:14;;;;;;;4.53;0.70;;;18.10;99.90;;;;;;5071252;28;20124;-65
2022/12/31 10:34:54;;;;;;;4.65;0.73;;;18.10;99.90;;;;;;5073464;28;20039;-65
2022/12/31 10:37:46;;;;;;;4.22;0.75;;;18.10;99.90;;;;;;5073029;28;20035;-64
2022/12/31 10:40:41;;;;;;;1.58;0.57;;;18.20;99.80;;;;;;5072043;28;20028;-64
2022/12/31 10:43:28;;;;;;;5.60;1.00;;;18.20;99.80;;;;;;5072076;28;20025;-64
2022/12/31 10:46:13;;;;;;;4.45;0.50;;;18.20;99.80;;;;;;5072942;28;20031;-64
2022/12/31 10:49:03;;;;;;;3.10;0.73;;;18.20;99.70;;;;;;5072013;28;20474;-64
2022/12/31 10:52:06;;;;;;;2.03;0.50;;;18.20;99.70;;;;;;5071898;28;20024;-65
2022/12/31 10:54:56;;;;;;;2.13;0.47;;;18.20;99.70;;;;;;5073057;28;20142;-64
2022/12/31 10:57:58;;;;;;;4.32;1.08;;;18.20;99.60;;;;;;5071795;28;20042;-64
2022/12/31 11:00:28;;;;;;;2.05;0.63;;;18.30;99.60;;;;;;5072182;28;20086;-64
2022/12/31 11:03:05;;;;;;;5.15;0.90;;;18.30;99.50;;;;;;5072129;28;20067;-65
2022/12/31 11:05:55;;;;;;;3.75;1.10;;;18.30;99.70;;;;;;5072600;28;20031;-64
2022/12/31 11:08:21;;;;;;;2.10;0.70;;;18.30;99.60;;;;;;5072862;28;20040;-66
2022/12/31 11:11:20;;;;;;;3.47;0.70;;;18.30;99.60;;;;;;5071403;28;20029;-66
2022/12/31 11:13:52;;;;;;;5.47;0.73;;;18.30;99.60;;;;;;5072380;28;20063;-68
2022/12/31 11:16:21;;;;;;;4.97;0.98;;;18.30;99.50;;;;;;5072236;28;20031;-70
2022/12/31 11:19:13;;;;;;;3.58;0.75;;;18.30;99.40;;;;;;5071362;28;20397;-70
2022/12/31 11:22:03;;;;;;;5.32;0.88;;;18.30;99.50;;;;;;5071691;28;20025;-71
2022/12/31 11:24:55;;;;;;;3.97;0.65;;;18.30;99.30;;;;;;5072251;28;20520;-68
2022/12/31 11:27:30;;;;;;;1.95;0.70;;;18.40;99.30;;;;;;5072042;28;20162;-71
2022/12/31 11:30:02;;;;;;;4.95;1.00;;;18.40;99.30;;;;;;5071482;28;20120;-71
2022/12/31 11:33:08;;;;;;;2.70;0.43;;;18.40;99.60;;;;;;5071728;28;20400;-71
2022/12/31 11:35:58;;;;;;;3.63;0.95;;;18.30;99.30;;;;;;5072359;28;20027;-72
2022/12/31 11:38:28;;;;;;;3.95;0.88;;;18.30;99.30;;;;;;5072570;28;20031;-67
2022/12/31 11:41:07;;;;;;;5.10;0.85;;;18.40;99.30;;;;;;5070779;28;20024;-70
2022/12/31 11:43:59;;;;;;;3.03;0.80;;;18.40;99.20;;;;;;5071663;28;20043;-71
2022/12/31 11:46:57;;;;;;;3.92;0.80;;;18.40;99.30;;;;;;5073342;28;20029;-70
2022/12/31 11:49:45;;;;;;;1.98;0.55;;;18.40;99.20;;;;;;5072769;28;20017;-70
2022/12/31 11:52:32;;;;;;;4.90;0.90;;;18.40;99.30;;;;;;5072734;28;20435;-70
2022/12/31 11:55:34;;;;;;;3.63;1.00;;;18.50;99.20;;;;;;5072361;28;20504;-65
2022/12/31 11:58:11;;;;;;;5.68;1.15;;;18.40;99.30;;;;;;5072623;28;20474;-72
2022/12/31 12:00:37;;;;;;;5.55;0.68;;;18.40;99.20;;;;;;5072275;28;20024;-65
2022/12/31 12:03:05;;;;;;;7.00;1.35;;;18.50;99.20;;;;;;5071534;28;20056;-65
2022/12/31 12:05:32;;;;;;;4.25;0.75;;;18.50;99.20;;;;;;5071077;28;20021;-64
2022/12/31 12:07:58;;;;;;;7.13;1.05;;;18.50;99.10;;;;;;5071144;28;20028;-64
2022/12/31 12:10:36;;;;;;;5.10;1.13;;;18.50;99.20;;;;;;5071257;28;20027;-64
2022/12/31 12:13:15;;;;;;;3.50;0.80;;;18.50;99.10;;;;;;5071376;28;20531;-63
2022/12/31 12:15:45;;;;;;;4.65;0.88;;;18.50;99.10;;;;;;5071889;28;20104;-72
2022/12/31 12:18:25;;;;;;;4.97;0.82;;;18.50;99.10;;;;;;5072114;28;20204;-71
2022/12/31 12:20:52;;;;;;;4.15;0.80;;;18.50;99.10;;;;;;5071113;28;20038;-65
2022/12/31 12:23:23;;;;;;;7.57;1.35;;;18.60;99.00;;;;;;5070575;28;20090;-64
2022/12/31 12:25:50;;;;;;;4.30;1.13;;;18.50;99.10;;;;;;5070436;28;20500;-64
2022/12/31 12:28:24;;;;;;;2.97;0.70;;;18.50;99.00;;;;;;5071351;28;20020;-69
2022/12/31 12:30:59;;;;;;;6.72;1.20;;;18.50;99.00;;;;;;5070773;28;20473;-72
2022/12/31 12:33:25;;;;;;;6.32;1.48;;;18.60;98.90;;;;;;5070566;28;20028;-71
2022/12/31 12:35:51;;;;;;;5.95;0.80;;;18.60;98.90;;;;;;5070447;28;20398;-71
2022/12/31 12:38:20;;;;;;;6.93;1.13;;;18.60;98.80;;;;;;5069580;28;20120;-71
2022/12/31 12:40:54;;;;;;;3.17;0.75;;;18.50;98.80;;;;;;5071117;28;20138;-71
2022/12/31 12:43:29;;;;;;;5.30;0.85;;;18.60;98.80;;;;;;5070873;28;20425;-70
2022/12/31 12:46:19;;;;;;;3.58;0.88;;;18.60;98.70;;;;;;5071631;28;20028;-72
2022/12/31 12:48:48;;;;;;;3.60;0.80;;;18.60;98.70;;;;;;5051622;28;20029;-72
2022/12/31 12:51:17;;;;;;;5.90;1.08;;;18.60;98.50;;;;;;5070520;28;20025;-69
2022/12/31 12:53:50;;;;;;;2.58;0.50;;;18.60;98.40;;;;;;5070652;28;20111;-72
2022/12/31 12:56:21;;;;;;;3.20;0.90;;;18.60;98.40;;;;;;5071179;28;20052;-72
2022/12/31 12:58:53;;;;;;;3.40;0.73;;;18.60;98.40;;;;;;5071402;28;20066;-72
2022/12/31 13:01:39;;;;;;;4.53;1.05;;;18.60;98.30;;;;;;5070344;28;20024;-72
2022/12/31 13:04:20;;;;;;;3.55;0.73;;;18.70;98.20;;;;;;5069787;28;20072;-72
2022/12/31 13:07:17;;;;;;;3.95;0.70;;;18.70;98.20;;;;;;5070905;28;20047;-72
2022/12/31 13:09:57;;;;;;;3.40;0.73;;;18.70;98.10;;;;;;5070843;28;20048;-71
2022/12/31 13:12:39;;;;;;;4.63;1.13;;;18.70;98.10;;;;;;5072194;28;20040;-71
2022/12/31 13:15:22;;;;;;;4.18;1.15;;;18.70;98.00;;;;;;5074709;28;20055;-70
2022/12/31 13:18:11;;;;;;;2.67;0.75;;;18.70;97.90;;;;;;5074983;28;20067;-68
2022/12/31 13:21:19;;;;;;;3.08;1.00;;;18.70;97.90;;;;;;5074073;28;20021;-69
2022/12/31 13:23:53;;;;;;;6.53;1.05;;;18.70;97.90;;;;;;5062673;28;20037;-66
2022/12/31 13:26:25;;;;;;;5.22;1.23;;;18.70;97.80;;;;;;5074810;28;20016;-65
2022/12/31 13:28:52;;;;;;;5.88;1.17;;;18.70;97.70;;;;;;5073186;28;20108;-65
2022/12/31 13:31:22;;;;;;;4.95;1.15;;;18.70;97.70;;;;;;5073732;28;20020;-65